createdAt,value
2022-08-21T00:00:29.119Z,20.40
2022-08-21T00:03:06.019Z,20.40
2022-08-21T00:05:38.253Z,20.40
2022-08-21T00:08:08.849Z,20.40
2022-08-21T00:10:38.285Z,20.40
2022-08-21T00:13:07.136Z,20.40
2022-08-21T00:15:39.830Z,20.40
2022-08-21T00:18:11.548Z,20.40
2022-08-21T00:20:42.639Z,20.30
2022-08-21T00:23:12.024Z,20.30
2022-08-21T00:25:39.688Z,20.30
2022-08-21T00:28:07.459Z,20.30
2022-08-21T00:30:35.433Z,20.30
2022-08-21T00:33:03.377Z,20.30
2022-08-21T00:35:37.670Z,20.30
2022-08-21T00:38:10.838Z,20.30
2022-08-21T00:40:54.274Z,20.30
2022-08-21T00:43:32.922Z,20.20
2022-08-21T00:46:01.346Z,20.20
2022-08-21T00:48:29.103Z,20.20
2022-08-21T00:51:12.159Z,20.20
2022-08-21T00:53:42.353Z,20.20
2022-08-21T00:56:12.392Z,20.20
2022-08-21T00:58:42.702Z,20.20
2022-08-21T01:01:13.006Z,20.20
2022-08-21T01:03:40.536Z,19.90
2022-08-21T01:06:14.751Z,20.10
2022-08-21T01:08:46.956Z,20.10
2022-08-21T01:11:16.119Z,20.10
2022-08-21T01:13:47.588Z,20.10
2022-08-21T01:16:17.655Z,20.10
2022-08-21T01:18:46.255Z,19.80
2022-08-21T01:21:28.374Z,20.00
2022-08-21T01:23:57.670Z,20.00
2022-08-21T01:26:33.882Z,20.00
2022-08-21T01:29:13.953Z,20.00
2022-08-21T01:31:44.033Z,19.90
2022-08-21T01:34:12.446Z,19.90
2022-08-21T01:36:41.615Z,19.90
2022-08-21T01:39:11.802Z,19.90
2022-08-21T01:41:38.734Z,19.90
2022-08-21T01:44:05.748Z,19.90
2022-08-21T01:46:33.420Z,19.80
2022-08-21T01:49:00.724Z,19.80
2022-08-21T01:51:27.655Z,19.80
2022-08-21T01:53:54.561Z,19.80
2022-08-21T01:56:21.601Z,19.80
2022-08-21T01:58:49.842Z,19.80
2022-08-21T02:01:16.950Z,19.80
2022-08-21T02:03:46.312Z,19.80
2022-08-21T02:06:18.701Z,19.70
2022-08-21T02:08:47.337Z,19.70
2022-08-21T02:11:14.673Z,19.70
2022-08-21T02:13:41.705Z,19.70
2022-08-21T02:16:09.854Z,19.70
2022-08-21T02:18:37.059Z,19.70
2022-08-21T02:21:05.756Z,19.70
2022-08-21T02:23:36.170Z,19.70
2022-08-21T02:26:07.589Z,19.70
2022-08-21T02:28:35.270Z,19.70
2022-08-21T02:31:06.227Z,19.60
2022-08-21T02:33:34.552Z,19.60
2022-08-21T02:36:03.575Z,19.60
2022-08-21T02:38:38.954Z,19.60
2022-08-21T02:41:15.237Z,19.60
2022-08-21T02:43:45.189Z,19.50
2022-08-21T02:46:15.273Z,19.60
2022-08-21T02:48:47.894Z,19.60
2022-08-21T02:51:20.606Z,19.50
2022-08-21T02:53:49.068Z,19.50
2022-08-21T02:56:20.053Z,19.50
2022-08-21T02:58:53.059Z,19.50
2022-08-21T03:01:21.604Z,19.40
2022-08-21T03:03:52.353Z,19.50
2022-08-21T03:06:25.576Z,19.40
2022-08-21T03:08:58.595Z,19.40
2022-08-21T03:11:26.680Z,19.40
2022-08-21T03:13:53.774Z,19.40
2022-08-21T03:16:21.661Z,19.40
2022-08-21T03:18:50.741Z,19.40
2022-08-21T03:21:19.858Z,19.40
2022-08-21T03:23:47.546Z,19.40
2022-08-21T03:26:17.527Z,19.40
2022-08-21T03:28:51.682Z,19.30
2022-08-21T03:31:22.636Z,19.40
2022-08-21T03:33:52.767Z,19.30
2022-08-21T03:36:19.687Z,19.30
2022-08-21T03:38:46.585Z,19.30
2022-08-21T03:41:15.750Z,19.30
2022-08-21T03:43:47.537Z,19.30
2022-08-21T03:46:14.790Z,19.20
2022-08-21T03:48:41.851Z,19.20
2022-08-21T03:51:09.325Z,19.20
2022-08-21T03:53:37.078Z,19.20
2022-08-21T03:56:05.610Z,19.20
2022-08-21T03:58:33.182Z,19.20
2022-08-21T04:01:02.232Z,19.20
2022-08-21T04:03:32.242Z,19.10
2022-08-21T04:06:03.781Z,19.10
2022-08-21T04:08:32.922Z,19.10
2022-08-21T04:11:02.538Z,18.90
2022-08-21T04:13:32.402Z,19.00
2022-08-21T04:15:59.594Z,19.10
2022-08-21T04:18:29.082Z,19.10
2022-08-21T04:21:02.851Z,19.00
2022-08-21T04:23:34.261Z,19.00
2022-08-21T04:26:01.222Z,19.00
2022-08-21T04:28:31.144Z,19.00
2022-08-21T04:31:00.950Z,19.00
2022-08-21T04:33:27.848Z,19.00
2022-08-21T04:35:54.816Z,19.00
2022-08-21T04:38:22.114Z,19.00
2022-08-21T04:40:50.379Z,19.00
2022-08-21T04:43:24.300Z,19.00
2022-08-21T04:45:53.159Z,19.00
2022-08-21T04:48:23.020Z,18.90
2022-08-21T04:50:58.031Z,18.90
2022-08-21T04:53:36.460Z,18.90
2022-08-21T04:56:22.199Z,18.90
2022-08-21T04:58:53.234Z,18.90
2022-08-21T05:01:24.871Z,18.90
2022-08-21T05:03:56.700Z,18.90
2022-08-21T05:06:25.650Z,18.90
2022-08-21T05:08:57.133Z,18.80
2022-08-21T05:11:32.426Z,18.80
2022-08-21T05:14:00.001Z,18.80
2022-08-21T05:16:30.165Z,18.80
2022-08-21T05:19:08.771Z,18.80
2022-08-21T05:21:38.393Z,18.80
2022-08-21T05:24:07.841Z,18.80
2022-08-21T05:26:45.340Z,18.80
2022-08-21T05:29:18.877Z,18.70
2022-08-21T05:31:49.901Z,18.70
2022-08-21T05:34:24.253Z,18.70
2022-08-21T05:36:51.484Z,18.70
2022-08-21T05:39:18.489Z,18.70
2022-08-21T05:41:45.414Z,18.70
2022-08-21T05:44:15.041Z,18.70
2022-08-21T05:46:44.511Z,18.70
2022-08-21T05:49:12.441Z,18.70
2022-08-21T05:51:42.969Z,18.70
2022-08-21T05:54:09.954Z,18.70
2022-08-21T05:56:39.915Z,18.70
2022-08-21T05:59:08.454Z,18.70
2022-08-21T06:01:41.441Z,18.70
2022-08-21T06:04:13.081Z,18.70
2022-08-21T06:06:42.281Z,18.70
2022-08-21T06:09:09.201Z,18.50
2022-08-21T06:11:40.956Z,18.70
2022-08-21T06:14:08.676Z,18.70
2022-08-21T06:16:35.637Z,18.70
2022-08-21T06:19:04.768Z,18.70
2022-08-21T06:21:31.747Z,18.70
2022-08-21T06:23:59.175Z,18.70
2022-08-21T06:26:30.126Z,18.70
2022-08-21T06:28:57.337Z,18.70
2022-08-21T06:31:30.591Z,18.70
2022-08-21T06:33:57.934Z,18.70
2022-08-21T06:36:27.364Z,18.80
2022-08-21T06:38:54.326Z,18.70
2022-08-21T06:41:26.601Z,18.80
2022-08-21T06:44:00.075Z,18.80
2022-08-21T06:46:30.822Z,18.80
2022-08-21T06:48:58.837Z,18.80
2022-08-21T06:51:28.809Z,18.80
2022-08-21T06:53:58.794Z,18.90
2022-08-21T06:56:26.705Z,18.90
2022-08-21T06:58:53.608Z,18.90
2022-08-21T07:01:26.225Z,18.90
2022-08-21T07:03:54.079Z,19.00
2022-08-21T07:06:21.036Z,19.10
2022-08-21T07:08:50.409Z,19.10
2022-08-21T07:11:26.498Z,19.30
2022-08-21T07:13:55.131Z,19.30
2022-08-21T07:16:25.627Z,19.50
2022-08-21T07:18:52.706Z,19.60
2022-08-21T07:21:25.825Z,19.70
2022-08-21T07:23:53.848Z,19.90
2022-08-21T07:26:23.841Z,20.10
2022-08-21T07:28:51.650Z,20.30
2022-08-21T07:31:24.474Z,20.60
2022-08-21T07:33:51.973Z,20.80
2022-08-21T07:36:19.249Z,21.00
2022-08-21T07:38:48.313Z,21.20
2022-08-21T07:41:25.362Z,21.40
2022-08-21T07:43:52.901Z,21.50
2022-08-21T07:46:22.375Z,21.70
2022-08-21T07:48:49.311Z,21.90
2022-08-21T07:51:28.141Z,22.10
2022-08-21T07:53:58.665Z,22.20
2022-08-21T07:56:29.342Z,22.20
2022-08-21T07:58:59.019Z,22.30
2022-08-21T08:01:28.704Z,22.40
2022-08-21T08:03:57.148Z,22.50
2022-08-21T08:06:24.192Z,22.70
2022-08-21T08:08:51.127Z,22.90
2022-08-21T08:11:18.092Z,23.20
2022-08-21T08:13:51.329Z,23.40
2022-08-21T08:16:20.446Z,23.60
2022-08-21T08:18:47.636Z,23.90
2022-08-21T08:21:17.135Z,24.10
2022-08-21T08:23:46.387Z,24.40
2022-08-21T08:26:13.739Z,24.60
2022-08-21T08:28:43.105Z,25.00
2022-08-21T08:31:10.239Z,25.30
2022-08-21T08:33:39.377Z,25.50
2022-08-21T08:36:08.071Z,25.80
2022-08-21T08:38:37.706Z,26.00
2022-08-21T08:41:20.769Z,26.20
2022-08-21T08:43:55.982Z,26.40
2022-08-21T08:46:48.230Z,26.50
2022-08-21T08:49:36.118Z,26.60
2022-08-21T08:52:26.924Z,26.70
2022-08-21T08:55:07.711Z,26.80
2022-08-21T08:57:36.821Z,26.80
2022-08-21T09:00:12.222Z,26.90
2022-08-21T09:02:48.851Z,26.90
2022-08-21T09:05:26.803Z,27.00
2022-08-21T09:08:25.823Z,27.00
2022-08-21T09:11:11.853Z,27.00
2022-08-21T09:14:25.438Z,27.10
2022-08-21T09:17:59.001Z,27.10
2022-08-21T09:21:03.599Z,27.20
2022-08-21T09:24:32.319Z,27.10
2022-08-21T09:27:29.116Z,27.30
2022-08-21T09:29:59.598Z,27.30
2022-08-21T09:32:47.990Z,27.50
2022-08-21T09:35:45.770Z,27.50
2022-08-21T09:38:55.057Z,27.60
2022-08-21T09:41:36.866Z,27.70
2022-08-21T09:44:22.265Z,27.80
2022-08-21T09:46:55.869Z,27.80
2022-08-21T09:49:31.747Z,27.90
2022-08-21T09:52:02.437Z,27.90
2022-08-21T09:54:40.259Z,27.90
2022-08-21T09:57:33.173Z,27.90
2022-08-21T10:00:31.170Z,28.00
2022-08-21T10:03:22.674Z,28.00
2022-08-21T10:06:07.284Z,27.90
2022-08-21T10:08:42.793Z,28.00
2022-08-21T10:11:16.123Z,28.00
2022-08-21T10:14:10.435Z,28.00
2022-08-21T10:17:07.513Z,28.10
2022-08-21T10:20:03.570Z,28.00
2022-08-21T10:22:43.651Z,28.00
2022-08-21T10:25:28.387Z,28.10
2022-08-21T10:28:13.687Z,28.10
2022-08-21T10:31:17.918Z,28.20
2022-08-21T10:34:29.890Z,28.10
2022-08-21T10:37:24.681Z,28.20
2022-08-21T10:39:56.939Z,28.20
2022-08-21T10:42:42.800Z,28.30
2022-08-21T10:45:45.658Z,28.30
2022-08-21T10:48:37.868Z,28.30
2022-08-21T10:51:39.542Z,28.30
2022-08-21T10:54:38.160Z,28.40
2022-08-21T10:57:18.207Z,28.40
2022-08-21T11:00:17.750Z,28.60
2022-08-21T11:02:52.702Z,28.60
2022-08-21T11:05:55.445Z,28.70
2022-08-21T11:09:01.112Z,28.70
2022-08-21T11:11:41.911Z,28.80
2022-08-21T11:14:49.889Z,28.90
2022-08-21T11:17:25.837Z,28.90
2022-08-21T11:20:41.520Z,29.00
2022-08-21T11:23:56.804Z,29.00
2022-08-21T11:26:45.171Z,29.10
2022-08-21T11:29:31.074Z,29.20
2022-08-21T11:32:33.256Z,29.20
2022-08-21T11:35:21.800Z,29.20
2022-08-21T11:37:57.748Z,29.10
2022-08-21T11:41:07.159Z,29.00
2022-08-21T11:43:49.132Z,28.90
2022-08-21T11:46:43.376Z,28.80
2022-08-21T11:49:28.286Z,28.70
2022-08-21T11:52:15.988Z,28.50
2022-08-21T11:55:15.640Z,28.50
2022-08-21T11:57:56.447Z,28.30
2022-08-21T12:00:33.802Z,28.20
2022-08-21T12:03:17.053Z,28.20
2022-08-21T12:06:01.836Z,28.20
2022-08-21T12:08:39.953Z,28.20
2022-08-21T12:11:15.372Z,28.20
2022-08-21T12:14:06.162Z,28.30
2022-08-21T12:16:41.715Z,28.30
2022-08-21T12:19:12.105Z,28.40
2022-08-21T12:22:02.554Z,28.50
2022-08-21T12:24:29.429Z,28.50
2022-08-21T12:27:22.392Z,28.60
2022-08-21T12:29:57.052Z,28.70
2022-08-21T12:32:31.175Z,28.70
2022-08-21T12:35:24.768Z,28.80
2022-08-21T12:38:24.962Z,28.80
2022-08-21T12:41:01.927Z,28.90
2022-08-21T12:43:40.039Z,28.90
2022-08-21T12:46:22.959Z,28.90
2022-08-21T12:48:59.523Z,28.90
2022-08-21T12:51:37.933Z,28.90
2022-08-21T12:54:07.404Z,28.90
2022-08-21T12:56:40.821Z,28.90
2022-08-21T12:59:13.159Z,28.80
2022-08-21T13:01:49.631Z,28.80
2022-08-21T13:04:41.098Z,28.60
2022-08-21T13:07:13.320Z,28.60
2022-08-21T13:09:59.070Z,28.50
2022-08-21T13:12:32.295Z,28.40
2022-08-21T13:15:06.512Z,28.40
2022-08-21T13:17:40.997Z,28.30
2022-08-21T13:20:38.928Z,28.30
2022-08-21T13:23:30.685Z,28.20
2022-08-21T13:25:58.628Z,28.10
2022-08-21T13:28:37.504Z,28.10
2022-08-21T13:31:12.189Z,28.10
2022-08-21T13:33:41.159Z,28.10
2022-08-21T13:36:29.310Z,28.20
2022-08-21T13:38:58.739Z,28.10
2022-08-21T13:41:50.105Z,28.20
2022-08-21T13:44:21.093Z,28.10
2022-08-21T13:46:49.440Z,28.10
2022-08-21T13:49:30.082Z,27.80
2022-08-21T13:51:56.993Z,28.00
2022-08-21T13:54:36.096Z,28.10
2022-08-21T13:57:03.625Z,28.10
2022-08-21T13:59:35.435Z,28.10
2022-08-21T14:02:24.878Z,28.10
2022-08-21T14:05:00.248Z,28.10
2022-08-21T14:07:41.736Z,28.10
2022-08-21T14:10:18.841Z,28.10
2022-08-21T14:13:02.891Z,28.10
2022-08-21T14:15:34.142Z,28.20
2022-08-21T14:18:20.859Z,28.20
2022-08-21T14:20:47.920Z,28.20
2022-08-21T14:23:28.338Z,28.30
2022-08-21T14:26:04.599Z,28.30
2022-08-21T14:28:50.239Z,28.30
2022-08-21T14:31:22.998Z,28.30
2022-08-21T14:33:49.990Z,28.40
2022-08-21T14:36:20.037Z,28.40
2022-08-21T14:38:46.983Z,28.30
2022-08-21T14:41:19.459Z,28.30
2022-08-21T14:43:47.951Z,28.30
2022-08-21T14:46:28.501Z,28.20
2022-08-21T14:48:56.172Z,28.10
2022-08-21T14:51:23.373Z,28.00
2022-08-21T14:53:50.416Z,28.00
2022-08-21T14:56:19.246Z,27.90
2022-08-21T14:58:49.989Z,27.90
2022-08-21T15:01:22.222Z,27.80
2022-08-21T15:03:49.586Z,27.70
2022-08-21T15:06:18.647Z,27.70
2022-08-21T15:08:45.704Z,27.60
2022-08-21T15:11:42.063Z,27.50
2022-08-21T15:14:30.225Z,27.50
2022-08-21T15:16:58.276Z,27.40
2022-08-21T15:19:26.143Z,27.40
2022-08-21T15:21:53.188Z,27.40
2022-08-21T15:24:20.163Z,27.40
2022-08-21T15:26:48.153Z,27.30
2022-08-21T15:29:22.532Z,27.30
2022-08-21T15:31:59.652Z,27.30
2022-08-21T15:34:32.097Z,27.20
2022-08-21T15:36:59.393Z,27.20
2022-08-21T15:39:31.408Z,27.30
2022-08-21T15:41:59.993Z,27.20
2022-08-21T15:44:38.372Z,27.20
2022-08-21T15:47:05.740Z,27.20
2022-08-21T15:49:32.625Z,27.30
2022-08-21T15:52:04.640Z,27.30
2022-08-21T15:54:31.767Z,27.30
2022-08-21T15:56:59.129Z,27.30
2022-08-21T15:59:27.765Z,27.30
2022-08-21T16:01:57.118Z,27.30
2022-08-21T16:04:27.950Z,27.30
2022-08-21T16:07:00.974Z,27.30
2022-08-21T16:09:32.339Z,27.20
2022-08-21T16:12:01.396Z,27.20
2022-08-21T16:14:34.232Z,27.20
2022-08-21T16:17:01.241Z,27.20
2022-08-21T16:19:34.208Z,27.20
2022-08-21T16:22:01.188Z,27.20
2022-08-21T16:24:28.100Z,27.20
2022-08-21T16:26:57.862Z,27.20
2022-08-21T16:29:35.206Z,27.20
2022-08-21T16:32:04.739Z,27.20
2022-08-21T16:34:31.816Z,27.20
2022-08-21T16:36:58.708Z,27.10
2022-08-21T16:39:28.339Z,27.10
2022-08-21T16:41:55.356Z,27.00
2022-08-21T16:44:25.494Z,27.00
2022-08-21T16:46:57.266Z,26.90
2022-08-21T16:49:24.279Z,26.80
2022-08-21T16:51:51.188Z,26.80
2022-08-21T16:54:20.667Z,26.70
2022-08-21T16:56:48.097Z,26.60
2022-08-21T16:59:18.066Z,26.60
2022-08-21T17:01:47.650Z,26.50
2022-08-21T17:04:14.646Z,26.50
2022-08-21T17:06:45.317Z,26.40
2022-08-21T17:09:14.569Z,26.30
2022-08-21T17:11:47.556Z,26.30
2022-08-21T17:14:20.344Z,26.20
2022-08-21T17:16:51.485Z,26.10
2022-08-21T17:19:18.982Z,26.10
2022-08-21T17:21:46.134Z,25.80
2022-08-21T17:24:15.543Z,25.90
2022-08-21T17:26:44.505Z,25.90
2022-08-21T17:29:14.574Z,25.90
2022-08-21T17:31:44.094Z,25.90
2022-08-21T17:34:14.734Z,25.80
2022-08-21T17:36:44.246Z,25.70
2022-08-21T17:39:12.953Z,25.70
2022-08-21T17:41:54.466Z,25.60
2022-08-21T17:44:25.742Z,25.50
2022-08-21T17:46:55.245Z,25.50
2022-08-21T17:49:22.439Z,25.40
2022-08-21T17:51:54.070Z,25.40
2022-08-21T17:54:21.091Z,25.30
2022-08-21T17:56:48.409Z,25.30
2022-08-21T17:59:18.189Z,25.20
2022-08-21T18:01:57.448Z,25.10
2022-08-21T18:04:26.747Z,25.10
2022-08-21T18:06:56.224Z,25.00
2022-08-21T18:09:28.241Z,25.00
2022-08-21T18:12:02.535Z,24.90
2022-08-21T18:14:34.578Z,24.90
2022-08-21T18:17:04.668Z,24.80
2022-08-21T18:19:31.584Z,24.70
2022-08-21T18:22:02.636Z,24.60
2022-08-21T18:24:33.387Z,24.60
2022-08-21T18:27:14.046Z,24.50
2022-08-21T18:29:47.372Z,24.40
2022-08-21T18:32:31.364Z,24.40
2022-08-21T18:35:04.936Z,24.30
2022-08-21T18:37:36.765Z,24.30
2022-08-21T18:40:10.896Z,24.20
2022-08-21T18:42:55.220Z,24.10
2022-08-21T18:45:28.918Z,24.10
2022-08-21T18:48:06.378Z,24.10
2022-08-21T18:50:37.210Z,24.00
2022-08-21T18:53:15.919Z,23.90
2022-08-21T18:55:57.768Z,23.90
2022-08-21T18:58:32.980Z,23.80
2022-08-21T19:01:00.301Z,23.80
2022-08-21T19:03:27.310Z,23.80
2022-08-21T19:05:59.286Z,23.70
2022-08-21T19:08:29.015Z,23.60
2022-08-21T19:11:02.436Z,23.60
2022-08-21T19:13:30.797Z,23.60
2022-08-21T19:16:03.641Z,23.50
2022-08-21T19:18:35.548Z,23.50
2022-08-21T19:21:03.963Z,23.40
2022-08-21T19:23:31.268Z,23.40
2022-08-21T19:26:07.131Z,23.30
2022-08-21T19:29:06.418Z,23.30
2022-08-21T19:31:56.360Z,23.30
2022-08-21T19:34:29.694Z,23.10
2022-08-21T19:37:02.051Z,23.20
2022-08-21T19:39:32.521Z,23.20
2022-08-21T19:42:00.310Z,23.10
2022-08-21T19:44:35.539Z,23.10
2022-08-21T19:47:10.007Z,23.00
2022-08-21T19:49:39.972Z,23.00
2022-08-21T19:52:11.888Z,22.90
2022-08-21T19:54:43.206Z,22.90
2022-08-21T19:57:12.771Z,22.80
2022-08-21T19:59:41.804Z,22.80
2022-08-21T20:02:11.460Z,22.80
2022-08-21T20:04:38.720Z,22.80
2022-08-21T20:07:08.187Z,22.70
2022-08-21T20:09:37.841Z,22.70
2022-08-21T20:12:10.332Z,22.70
2022-08-21T20:14:47.598Z,22.60
2022-08-21T20:17:17.956Z,22.50
2022-08-21T20:19:49.125Z,22.50
2022-08-21T20:22:20.943Z,22.50
2022-08-21T20:24:48.110Z,22.50
2022-08-21T20:27:25.998Z,22.50
2022-08-21T20:29:54.822Z,22.40
2022-08-21T20:32:22.628Z,22.40
2022-08-21T20:34:51.786Z,22.40
2022-08-21T20:37:22.137Z,22.40
2022-08-21T20:42:58.037Z,22.30
2022-08-21T20:45:31.045Z,22.30
2022-08-21T20:48:18.393Z,22.20
2022-08-21T20:51:01.221Z,22.20
2022-08-21T20:53:58.750Z,22.20
2022-08-21T20:57:03.203Z,22.10
2022-08-21T20:59:49.988Z,22.00
2022-08-21T21:02:26.613Z,22.00
2022-08-21T21:05:23.466Z,22.00
2022-08-21T21:08:24.196Z,22.00
2022-08-21T21:10:54.689Z,21.90
2022-08-21T21:13:49.909Z,21.90
2022-08-21T21:16:51.017Z,21.90
2022-08-21T21:19:42.970Z,21.80
2022-08-21T21:22:25.077Z,21.80
2022-08-21T21:25:15.067Z,21.70
2022-08-21T21:27:53.494Z,21.70
2022-08-21T21:30:31.410Z,21.70
2022-08-21T21:32:58.787Z,21.70
2022-08-21T21:35:38.567Z,21.60
2022-08-21T21:38:30.978Z,21.60
2022-08-21T21:41:06.666Z,21.50
2022-08-21T21:44:17.114Z,21.50
2022-08-21T21:47:04.973Z,21.40
2022-08-21T21:50:19.012Z,21.40
2022-08-21T21:52:59.679Z,21.40
2022-08-21T21:55:32.865Z,21.40
2022-08-21T21:58:03.577Z,21.40
2022-08-21T22:00:34.257Z,21.40
2022-08-21T22:03:30.028Z,21.40
2022-08-21T22:06:00.351Z,21.30
2022-08-21T22:09:22.460Z,21.30
2022-08-21T22:12:17.378Z,21.20
2022-08-21T22:14:47.286Z,21.20
2022-08-21T22:17:34.479Z,21.20
2022-08-21T22:20:35.678Z,21.10
2022-08-21T22:26:10.887Z,21.10
2022-08-21T22:28:47.940Z,21.10
2022-08-21T22:31:26.300Z,21.10
2022-08-21T22:34:00.822Z,21.10
2022-08-21T22:36:43.403Z,21.00
2022-08-21T22:39:26.499Z,21.10
2022-08-21T22:41:55.673Z,21.10
2022-08-21T22:44:27.379Z,21.00
2022-08-21T22:46:59.002Z,21.00
2022-08-21T22:49:35.284Z,21.00
2022-08-21T22:52:20.063Z,21.00
2022-08-21T22:54:53.184Z,21.00
2022-08-21T22:57:35.792Z,20.90
2022-08-21T23:00:15.892Z,20.80
2022-08-21T23:02:54.041Z,20.80
2022-08-21T23:05:28.626Z,20.80
2022-08-21T23:08:23.934Z,20.70
2022-08-21T23:11:05.336Z,20.70
2022-08-21T23:13:46.178Z,20.60
2022-08-21T23:20:17.666Z,20.50
2022-08-21T23:23:04.291Z,20.50
2022-08-21T23:25:46.845Z,20.50
2022-08-21T23:28:30.521Z,20.50
2022-08-21T23:31:25.323Z,20.50
2022-08-21T23:34:15.775Z,20.50
2022-08-21T23:37:51.485Z,20.40
2022-08-21T23:40:36.471Z,20.40
2022-08-21T23:43:30.999Z,20.40
2022-08-21T23:49:33.514Z,20.30
2022-08-21T23:52:35.554Z,20.30
2022-08-21T23:55:17.325Z,20.30
2022-08-21T23:58:11.720Z,20.10
